createdAt,value
2018-09-10T00:01:59.647Z,98571.14
2018-09-10T00:04:29.025Z,98569.89
2018-09-10T00:06:58.434Z,98572.06
2018-09-10T00:09:27.783Z,98564.38
2018-09-10T00:11:57.166Z,98554.94
2018-09-10T00:14:26.562Z,98554.95
2018-09-10T00:16:55.919Z,98552.42
2018-09-10T00:19:25.295Z,98563.58
2018-09-10T00:21:54.678Z,98566.18
2018-09-10T00:24:24.158Z,98564.03
2018-09-10T00:26:53.586Z,98555.48
2018-09-10T00:29:22.958Z,98558.47
2018-09-10T00:31:52.358Z,98558.05
2018-09-10T00:34:21.848Z,98561.06
2018-09-10T00:36:51.214Z,98561.51
2018-09-10T00:39:20.594Z,98553.79
2018-09-10T00:41:50.023Z,98546.09
2018-09-10T00:44:19.402Z,98557.62
2018-09-10T00:46:48.817Z,98556.80
2018-09-10T00:49:18.246Z,98554.22
2018-09-10T00:51:47.646Z,98553.37
2018-09-10T00:54:17.014Z,98549.09
2018-09-10T00:56:46.535Z,98546.13
2018-09-10T00:59:15.915Z,98545.68
2018-09-10T01:01:45.315Z,98550.84
2018-09-10T01:04:14.708Z,98549.11
2018-09-10T01:06:44.110Z,98548.67
2018-09-10T01:09:13.500Z,98546.98
2018-09-10T01:11:42.865Z,98551.23
2018-09-10T01:14:12.226Z,98561.52
2018-09-10T01:16:41.621Z,98559.38
2018-09-10T01:19:11.067Z,98563.23
2018-09-10T01:21:40.481Z,98570.09
2018-09-10T01:24:09.857Z,98569.20
2018-09-10T01:26:39.250Z,98560.25
2018-09-10T01:29:08.666Z,98570.92
2018-09-10T01:31:38.070Z,98569.23
2018-09-10T01:34:12.466Z,98566.22
2018-09-10T01:36:41.850Z,98564.95
2018-09-10T01:39:11.247Z,98563.22
2018-09-10T01:41:40.628Z,98566.65
2018-09-10T01:44:09.987Z,98570.07
2018-09-10T01:46:39.395Z,98560.69
2018-09-10T01:49:08.758Z,98558.95
2018-09-10T01:51:38.132Z,98560.23
2018-09-10T01:54:07.642Z,98567.91
2018-09-10T01:56:37.006Z,98562.38
2018-09-10T01:59:06.422Z,98563.23
2018-09-10T02:01:35.929Z,98564.07
2018-09-10T02:04:05.294Z,98564.53
2018-09-10T02:06:34.743Z,98578.20
2018-09-10T02:09:05.411Z,98558.95
2018-09-10T02:11:34.798Z,98543.14
2018-09-10T02:14:04.198Z,98561.96
2018-09-10T02:16:33.652Z,98566.22
2018-09-10T02:19:03.046Z,98572.63
2018-09-10T02:21:32.434Z,98565.35
2018-09-10T02:24:01.834Z,98564.92
2018-09-10T02:26:31.223Z,98556.80
2018-09-10T02:29:00.646Z,98561.07
2018-09-10T02:31:30.078Z,98561.92
2018-09-10T02:33:59.474Z,98559.79
2018-09-10T02:36:28.838Z,98569.61
2018-09-10T02:38:58.298Z,98567.48
2018-09-10T02:41:27.680Z,98561.06
2018-09-10T02:43:57.054Z,98552.49
2018-09-10T02:46:26.466Z,98554.22
2018-09-10T02:48:55.867Z,98549.09
2018-09-10T02:51:25.282Z,98547.81
2018-09-10T02:53:54.655Z,98552.97
2018-09-10T02:56:24.040Z,98555.94
2018-09-10T02:58:53.448Z,98555.07
2018-09-10T03:01:22.810Z,98550.80
2018-09-10T03:03:52.218Z,98552.95
2018-09-10T03:06:21.858Z,98549.12
2018-09-10T03:08:51.255Z,98544.41
2018-09-10T03:11:20.623Z,98544.85
2018-09-10T03:13:50.077Z,98545.27
2018-09-10T03:16:19.469Z,98547.83
2018-09-10T03:18:48.833Z,98545.72
2018-09-10T03:21:18.199Z,98541.00
2018-09-10T03:23:47.591Z,98536.31
2018-09-10T03:26:16.958Z,98536.29
2018-09-10T03:28:46.341Z,98539.30
2018-09-10T03:31:15.722Z,98546.09
2018-09-10T03:33:45.217Z,98544.82
2018-09-10T03:36:14.586Z,98542.27
2018-09-10T03:38:43.972Z,98544.83
2018-09-10T03:41:13.354Z,98542.27
2018-09-10T03:43:42.751Z,98539.27
2018-09-10T03:46:12.125Z,98540.98
2018-09-10T03:48:41.494Z,98544.81
2018-09-10T03:51:10.858Z,98549.52
2018-09-10T03:53:40.227Z,98538.41
2018-09-10T03:56:09.610Z,98537.55
2018-09-10T03:58:39.018Z,98533.70
2018-09-10T04:01:08.935Z,98534.55
2018-09-10T04:03:38.306Z,98533.25
2018-09-10T04:06:07.714Z,98541.77
2018-09-10T04:08:37.236Z,98543.49
2018-09-10T04:11:06.754Z,98547.34
2018-09-10T04:13:36.246Z,98540.53
2018-09-10T04:16:05.614Z,98538.36
2018-09-10T04:18:35.019Z,98537.09
2018-09-10T04:21:04.402Z,98538.39
2018-09-10T04:23:33.782Z,98534.09
2018-09-10T04:26:03.258Z,98531.50
2018-09-10T04:28:32.642Z,98539.63
2018-09-10T04:31:02.015Z,98536.22
2018-09-10T04:33:31.430Z,98527.69
2018-09-10T04:36:00.887Z,98534.48
2018-09-10T04:38:30.186Z,98535.78
2018-09-10T04:41:00.548Z,98545.55
2018-09-10T04:43:29.947Z,98542.99
2018-09-10T04:46:00.954Z,98546.00
2018-09-10T04:48:30.365Z,98547.30
2018-09-10T04:51:00.592Z,98552.44
2018-09-10T04:53:29.971Z,98547.73
2018-09-10T04:56:00.570Z,98546.47
2018-09-10T04:58:29.941Z,98551.61
2018-09-10T05:00:59.572Z,98554.15
2018-09-10T05:03:29.018Z,98556.28
2018-09-10T05:05:58.624Z,98564.02
2018-09-10T05:08:28.039Z,98565.72
2018-09-10T05:10:57.442Z,98567.86
2018-09-10T05:13:26.797Z,98567.88
2018-09-10T05:15:56.190Z,98578.98
2018-09-10T05:18:25.614Z,98587.53
2018-09-10T05:20:55.009Z,98585.38
2018-09-10T05:23:24.409Z,98585.41
2018-09-10T05:25:53.778Z,98590.59
2018-09-10T05:28:23.154Z,98583.31
2018-09-10T05:30:52.552Z,98582.92
2018-09-10T05:33:22.065Z,98577.33
2018-09-10T05:35:51.482Z,98569.66
2018-09-10T05:38:20.894Z,98564.95
2018-09-10T05:40:50.258Z,98569.19
2018-09-10T05:43:19.625Z,98569.19
2018-09-10T05:45:49.006Z,98566.61
2018-09-10T05:48:18.391Z,98568.34
2018-09-10T05:50:47.766Z,98573.41
2018-09-10T05:53:17.186Z,98574.25
2018-09-10T05:55:46.511Z,98584.13
2018-09-10T05:58:15.886Z,98582.84
2018-09-10T06:00:45.258Z,98584.91
2018-09-10T06:03:14.630Z,98586.09
2018-09-10T06:05:44.006Z,98585.61
2018-09-10T06:08:13.402Z,98587.25
2018-09-10T06:10:42.773Z,98587.14
2018-09-10T06:13:12.139Z,98585.41
2018-09-10T06:15:41.507Z,98588.03
2018-09-10T06:18:10.875Z,98582.79
2018-09-10T06:20:40.234Z,98581.84
2018-09-10T06:23:09.615Z,98583.44
2018-09-10T06:25:38.989Z,98588.72
2018-09-10T06:28:08.382Z,98583.50
2018-09-10T06:30:37.769Z,98583.10
2018-09-10T06:33:07.146Z,98582.52
2018-09-10T06:35:36.731Z,98582.77
2018-09-10T06:38:06.404Z,98577.89
2018-09-10T06:40:35.759Z,98577.64
2018-09-10T06:43:05.417Z,98579.95
2018-09-10T06:45:35.388Z,98572.45
2018-09-10T06:48:04.795Z,98577.95
2018-09-10T06:50:34.194Z,98585.86
2018-09-10T06:53:03.571Z,98586.13
2018-09-10T06:55:33.282Z,98585.61
2018-09-10T06:58:02.669Z,98584.08
2018-09-10T07:00:32.055Z,98583.92
2018-09-10T07:03:01.450Z,98580.70
2018-09-10T07:05:30.818Z,98573.93
2018-09-10T07:08:00.203Z,98571.17
2018-09-10T07:10:29.699Z,98576.14
2018-09-10T07:12:59.082Z,98573.81
2018-09-10T07:15:28.423Z,98580.37
2018-09-10T07:17:58.113Z,98582.66
2018-09-10T07:20:27.756Z,98581.81
2018-09-10T07:22:57.314Z,98590.87
2018-09-10T07:25:27.022Z,98595.19
2018-09-10T07:27:56.706Z,98600.30
2018-09-10T07:30:26.833Z,98600.86
2018-09-10T07:32:56.512Z,98591.44
2018-09-10T07:35:26.157Z,98588.23
2018-09-10T07:37:55.726Z,98598.47
2018-09-10T07:40:25.390Z,98599.17
2018-09-10T07:42:55.027Z,98595.75
2018-09-10T07:45:24.616Z,98581.45
2018-09-10T07:47:54.250Z,98577.70
2018-09-10T07:50:23.930Z,98575.89
2018-09-10T07:52:53.637Z,98571.67
2018-09-10T07:55:23.308Z,98572.20
2018-09-10T07:57:52.964Z,98576.11
2018-09-10T08:00:22.681Z,98571.81
2018-09-10T08:02:52.390Z,98563.22
2018-09-10T08:05:21.974Z,98569.55
2018-09-10T08:07:51.691Z,98581.59
2018-09-10T08:10:21.364Z,98579.70
2018-09-10T08:12:51.012Z,98573.70
2018-09-10T08:15:20.807Z,98576.44
2018-09-10T08:17:50.414Z,98567.60
2018-09-10T08:20:20.003Z,98565.16
2018-09-10T08:22:49.552Z,98566.11
2018-09-10T08:25:19.264Z,98567.53
2018-09-10T08:27:48.823Z,98560.54
2018-09-10T08:30:18.450Z,98558.34
2018-09-10T08:32:48.022Z,98561.70
2018-09-10T08:35:17.779Z,98562.77
2018-09-10T08:37:47.590Z,98552.39
2018-09-10T08:40:17.268Z,98555.75
2018-09-10T08:42:47.033Z,98557.89
2018-09-10T08:45:16.695Z,98556.09
2018-09-10T08:47:46.293Z,98554.61
2018-09-10T08:50:15.912Z,98551.97
2018-09-10T08:52:45.663Z,98560.13
2018-09-10T08:55:15.352Z,98560.62
2018-09-10T08:57:44.847Z,98559.01
2018-09-10T09:00:14.480Z,98558.09
2018-09-10T09:02:44.057Z,98567.16
2018-09-10T09:05:13.712Z,98564.53
2018-09-10T09:07:43.323Z,98558.39
2018-09-10T09:10:13.030Z,98556.73
2018-09-10T09:12:42.592Z,98564.45
2018-09-10T09:15:12.296Z,98562.52
2018-09-10T09:17:41.967Z,98567.98
2018-09-10T09:20:11.668Z,98570.13
2018-09-10T09:22:41.351Z,98562.89
2018-09-10T09:25:10.988Z,98561.39
2018-09-10T09:27:40.608Z,98564.50
2018-09-10T09:30:10.316Z,98563.15
2018-09-10T09:32:39.937Z,98560.48
2018-09-10T09:35:09.618Z,98557.27
2018-09-10T09:37:44.494Z,98551.13
2018-09-10T09:40:19.340Z,98546.95
2018-09-10T09:42:54.232Z,98556.41
2018-09-10T09:46:29.725Z,98551.78
2018-09-10T09:48:59.327Z,98542.92
2018-09-10T09:51:28.925Z,98543.05
2018-09-10T09:53:58.580Z,98538.32
2018-09-10T09:56:28.133Z,98536.37
2018-09-10T09:58:58.001Z,98541.99
2018-09-10T10:01:32.533Z,98537.80
2018-09-10T10:04:07.492Z,98538.18
2018-09-10T10:06:37.312Z,98535.40
2018-09-10T10:09:11.822Z,98526.45
2018-09-10T10:11:41.840Z,98525.81
2018-09-10T10:14:11.981Z,98528.97
2018-09-10T10:16:41.537Z,98527.58
2018-09-10T10:19:11.139Z,98535.11
2018-09-10T10:21:40.732Z,98524.13
2018-09-10T10:24:10.420Z,98526.62
2018-09-10T10:26:40.090Z,98525.56
2018-09-10T10:29:09.819Z,98521.45
2018-09-10T10:31:39.436Z,98511.75
2018-09-10T10:34:09.044Z,98507.03
2018-09-10T10:36:38.699Z,98513.88
2018-09-10T10:39:08.795Z,98507.53
2018-09-10T10:41:38.511Z,98513.17
2018-09-10T10:44:08.082Z,98508.84
2018-09-10T10:46:37.690Z,98507.63
2018-09-10T10:49:07.402Z,98500.81
2018-09-10T10:51:37.006Z,98503.14
2018-09-10T10:54:06.809Z,98507.60
2018-09-10T10:56:37.382Z,98499.48
2018-09-10T10:59:07.138Z,98493.62
2018-09-10T11:01:36.730Z,98500.43
2018-09-10T11:04:06.443Z,98496.11
2018-09-10T11:06:36.008Z,98483.80
2018-09-10T11:09:07.525Z,98491.64
2018-09-10T11:11:37.322Z,98505.45
2018-09-10T11:14:06.967Z,98507.37
2018-09-10T11:16:36.549Z,98511.00
2018-09-10T11:19:06.240Z,98506.89
2018-09-10T11:21:35.990Z,98498.52
2018-09-10T11:24:05.586Z,98501.09
2018-09-10T11:26:35.692Z,98499.92
2018-09-10T11:29:05.315Z,98502.06
2018-09-10T11:31:34.945Z,98494.24
2018-09-10T11:34:04.572Z,98499.95
2018-09-10T11:36:34.326Z,98491.31
2018-09-10T11:39:04.443Z,98494.84
2018-09-10T11:41:34.123Z,98488.19
2018-09-10T11:44:03.827Z,98488.48
2018-09-10T11:46:33.431Z,98487.13
2018-09-10T11:49:03.090Z,98482.29
2018-09-10T11:51:32.673Z,98474.13
2018-09-10T11:54:02.280Z,98472.50
2018-09-10T11:56:31.870Z,98467.61
2018-09-10T11:59:01.490Z,98459.22
2018-09-10T12:01:31.088Z,98464.23
2018-09-10T12:04:00.772Z,98457.95
2018-09-10T12:06:30.323Z,98458.91
2018-09-10T12:08:59.995Z,98458.02
2018-09-10T12:11:29.588Z,98461.56
2018-09-10T12:13:59.214Z,98462.49
2018-09-10T12:16:28.811Z,98460.44
2018-09-10T12:18:58.517Z,98451.34
2018-09-10T12:21:28.160Z,98443.22
2018-09-10T12:23:57.768Z,98446.49
2018-09-10T12:26:27.443Z,98440.06
2018-09-10T12:28:57.065Z,98438.17
2018-09-10T12:31:26.690Z,98437.11
2018-09-10T12:33:56.295Z,98432.28
2018-09-10T12:36:25.864Z,98431.54
2018-09-10T12:38:55.499Z,98440.56
2018-09-10T12:41:25.210Z,98440.83
2018-09-10T12:43:55.047Z,98452.91
2018-09-10T12:46:24.691Z,98454.64
2018-09-10T12:48:54.320Z,98448.36
2018-09-10T12:51:23.868Z,98449.95
2018-09-10T12:53:53.494Z,98452.22
2018-09-10T12:56:23.089Z,98456.01
2018-09-10T12:58:52.847Z,98470.45
2018-09-10T13:01:22.395Z,98467.25
2018-09-10T13:03:51.981Z,98466.08
2018-09-10T13:06:21.594Z,98468.62
2018-09-10T13:08:51.286Z,98472.58
2018-09-10T13:11:20.918Z,98489.08
2018-09-10T13:13:50.535Z,98480.57
2018-09-10T13:16:20.212Z,98482.77
2018-09-10T13:18:49.782Z,98490.55
2018-09-10T13:21:19.409Z,98498.89
2018-09-10T13:23:49.040Z,98505.53
2018-09-10T13:26:18.622Z,98504.34
2018-09-10T13:28:48.245Z,98501.78
2018-09-10T13:31:17.842Z,98510.33
2018-09-10T13:33:47.417Z,98509.50
2018-09-10T13:36:16.977Z,98520.94
2018-09-10T13:38:46.627Z,98531.59
2018-09-10T13:41:16.277Z,98534.77
2018-09-10T13:43:45.903Z,98536.83
2018-09-10T13:46:15.505Z,98532.58
2018-09-10T13:48:45.117Z,98540.34
2018-09-10T13:51:14.757Z,98539.55
2018-09-10T13:53:44.518Z,98547.52
2018-09-10T13:56:14.179Z,98542.91
2018-09-10T13:58:43.874Z,98550.83
2018-09-10T14:01:13.522Z,98536.44
2018-09-10T14:03:43.161Z,98524.94
2018-09-10T14:06:12.781Z,98526.77
2018-09-10T14:08:42.451Z,98526.77
2018-09-10T14:11:12.058Z,98525.52
2018-09-10T14:13:41.798Z,98507.16
2018-09-10T14:16:11.395Z,98510.18
2018-09-10T14:18:41.097Z,98504.34
2018-09-10T14:21:10.713Z,98503.35
2018-09-10T14:23:40.339Z,98491.52
2018-09-10T14:26:09.905Z,98498.66
2018-09-10T14:28:39.593Z,98493.48
2018-09-10T14:31:09.151Z,98495.44
2018-09-10T14:33:38.740Z,98493.16
2018-09-10T14:36:08.334Z,98485.30
2018-09-10T14:38:38.037Z,98494.05
2018-09-10T14:41:07.694Z,98498.30
2018-09-10T14:43:37.306Z,98510.86
2018-09-10T14:46:07.071Z,98506.47
2018-09-10T14:48:36.761Z,98498.99
2018-09-10T14:51:06.318Z,98500.95
2018-09-10T14:53:35.994Z,98493.42
2018-09-10T14:56:05.597Z,98488.23
2018-09-10T14:58:35.323Z,98495.59
2018-09-10T15:01:04.945Z,98493.23
2018-09-10T15:03:34.579Z,98493.28
2018-09-10T15:06:04.120Z,98503.75
2018-09-10T15:08:33.780Z,98505.66
2018-09-10T15:11:04.101Z,98504.06
2018-09-10T15:13:33.847Z,98506.86
2018-09-10T15:16:04.074Z,98518.77
2018-09-10T15:18:33.821Z,98513.09
2018-09-10T15:21:04.273Z,98525.64
2018-09-10T15:23:33.866Z,98514.27
2018-09-10T15:26:04.307Z,98507.96
2018-09-10T15:28:33.939Z,98516.72
2018-09-10T15:31:04.459Z,98529.66
2018-09-10T15:33:34.052Z,98529.19
2018-09-10T15:36:04.247Z,98528.83
2018-09-10T15:38:33.853Z,98529.72
2018-09-10T15:41:04.196Z,98516.19
2018-09-10T15:43:33.818Z,98524.42
2018-09-10T15:46:04.303Z,98533.87
2018-09-10T15:48:33.969Z,98536.05
2018-09-10T15:51:04.523Z,98539.98
2018-09-10T15:53:34.342Z,98538.34
2018-09-10T15:56:04.487Z,98536.28
2018-09-10T15:58:34.175Z,98544.09
2018-09-10T16:01:04.492Z,98546.02
2018-09-10T16:03:34.135Z,98539.84
2018-09-10T16:06:04.510Z,98537.70
2018-09-10T16:08:34.328Z,98545.92
2018-09-10T16:11:04.975Z,98555.91
2018-09-10T16:13:34.901Z,98564.36
2018-09-10T16:16:04.542Z,98567.82
2018-09-10T16:18:34.291Z,98567.49
2018-09-10T16:21:04.441Z,98576.88
2018-09-10T16:23:34.098Z,98577.20
2018-09-10T16:26:04.491Z,98570.71
2018-09-10T16:28:34.128Z,98571.45
2018-09-10T16:31:04.540Z,98573.03
2018-09-10T16:33:34.173Z,98566.97
2018-09-10T16:36:04.499Z,98559.87
2018-09-10T16:38:34.139Z,98563.38
2018-09-10T16:41:04.627Z,98569.30
2018-09-10T16:43:34.366Z,98585.16
2018-09-10T16:46:04.532Z,98571.03
2018-09-10T16:48:34.289Z,98555.81
2018-09-10T16:51:04.724Z,98564.67
2018-09-10T16:53:34.528Z,98574.00
2018-09-10T16:56:04.668Z,98561.14
2018-09-10T16:58:34.330Z,98553.73
2018-09-10T17:01:04.806Z,98581.39
2018-09-10T17:03:34.464Z,98582.81
2018-09-10T17:06:04.947Z,98581.08
2018-09-10T17:08:34.667Z,98583.27
2018-09-10T17:11:04.835Z,98576.59
2018-09-10T17:13:34.509Z,98580.25
2018-09-10T17:16:04.710Z,98572.61
2018-09-10T17:18:34.082Z,98572.91
2018-09-10T17:21:04.626Z,98565.95
2018-09-10T17:23:34.034Z,98562.23
2018-09-10T17:26:04.682Z,98475.41
2018-09-10T17:28:34.055Z,98549.84
2018-09-10T17:31:04.714Z,98560.30
2018-09-10T17:33:34.086Z,98572.06
2018-09-10T17:36:04.725Z,98574.27
2018-09-10T17:38:34.098Z,98579.31
2018-09-10T17:41:04.803Z,98586.47
2018-09-10T17:43:34.209Z,98589.08
2018-09-10T17:46:04.881Z,98598.77
2018-09-10T17:48:34.304Z,98596.34
2018-09-10T17:51:05.949Z,98599.25
2018-09-10T17:53:35.365Z,98597.64
2018-09-10T17:56:05.043Z,98603.14
2018-09-10T17:58:34.600Z,98602.59
2018-09-10T18:01:05.170Z,98600.98
2018-09-10T18:03:34.626Z,98605.59
2018-09-10T18:06:05.112Z,98598.16
2018-09-10T18:08:34.612Z,98608.02
2018-09-10T18:11:05.379Z,98617.79
2018-09-10T18:13:34.966Z,98623.05
2018-09-10T18:16:05.335Z,98625.22
2018-09-10T18:18:35.172Z,98630.08
2018-09-10T18:21:05.252Z,98639.30
2018-09-10T18:23:35.756Z,98649.05
2018-09-10T18:26:05.727Z,98650.28
2018-09-10T18:28:36.079Z,98655.22
2018-09-10T18:31:07.540Z,98658.23
2018-09-10T18:33:38.417Z,98669.33
2018-09-10T18:36:10.226Z,98668.58
2018-09-10T18:38:42.435Z,98660.36
2018-09-10T18:41:15.743Z,98661.00
2018-09-10T18:43:48.321Z,98650.01
2018-09-10T18:46:21.035Z,98667.55
2018-09-10T18:48:53.803Z,98666.93
2018-09-10T18:51:27.668Z,98669.81
2018-09-10T18:54:00.742Z,98680.20
2018-09-10T18:56:34.037Z,98685.94
2018-09-10T18:59:07.278Z,98672.62
2018-09-10T19:01:40.417Z,98675.25
2018-09-10T19:04:13.281Z,98677.17
2018-09-10T19:06:46.259Z,98676.69
2018-09-10T19:09:19.147Z,98680.60
2018-09-10T19:11:52.193Z,98677.65
2018-09-10T19:14:25.528Z,98668.14
2018-09-10T19:16:58.542Z,98682.13
2018-09-10T19:19:31.723Z,98683.83
2018-09-10T19:22:05.066Z,98680.59
2018-09-10T19:24:38.351Z,98673.86
2018-09-10T19:27:11.263Z,98682.73
2018-09-10T19:29:44.251Z,98687.17
2018-09-10T19:32:17.148Z,98674.29
2018-09-10T19:34:51.223Z,98669.25
2018-09-10T19:37:24.471Z,98665.52
2018-09-10T19:39:57.637Z,98652.78
2018-09-10T19:42:30.766Z,98645.31
2018-09-10T19:45:03.640Z,98635.63
2018-09-10T19:47:36.804Z,98632.55
2018-09-10T19:50:09.780Z,98633.12
2018-09-10T19:52:42.593Z,98642.65
2018-09-10T19:55:15.419Z,98622.94
2018-09-10T19:57:48.684Z,98620.05
2018-09-10T20:00:22.064Z,98614.77
2018-09-10T20:02:55.282Z,98611.52
2018-09-10T20:05:28.278Z,98609.91
2018-09-10T20:08:01.389Z,98611.55
2018-09-10T20:10:34.276Z,98622.30
2018-09-10T20:13:07.394Z,98627.25
2018-09-10T20:15:40.572Z,98638.97
2018-09-10T20:18:13.921Z,98635.63
2018-09-10T20:20:46.279Z,98638.14
2018-09-10T20:23:17.493Z,98629.17
2018-09-10T20:25:48.377Z,98639.14
2018-09-10T20:28:20.244Z,98640.81
2018-09-10T20:30:51.642Z,98635.09
2018-09-10T20:33:22.504Z,98637.69
2018-09-10T20:35:53.639Z,98624.81
2018-09-10T20:38:23.631Z,98619.14
2018-09-10T20:40:53.371Z,98613.25
2018-09-10T20:43:23.258Z,98618.01
2018-09-10T20:45:53.008Z,98625.91
2018-09-10T20:48:22.638Z,98623.39
2018-09-10T20:50:52.477Z,98626.03
2018-09-10T20:53:22.166Z,98628.91
2018-09-10T20:55:51.969Z,98634.05
2018-09-10T20:58:21.662Z,98626.39
2018-09-10T21:00:51.430Z,98620.16
2018-09-10T21:03:21.170Z,98632.06
2018-09-10T21:05:50.866Z,98631.78
2018-09-10T21:08:20.572Z,98634.97
2018-09-10T21:10:50.329Z,98638.69
2018-09-10T21:13:19.933Z,98639.55
2018-09-10T21:15:49.579Z,98647.58
2018-09-10T21:18:18.980Z,98655.36
2018-09-10T21:20:48.563Z,98667.13
2018-09-10T21:23:17.946Z,98658.42
2018-09-10T21:25:47.387Z,98666.61
2018-09-10T21:28:16.705Z,98668.41
2018-09-10T21:30:46.270Z,98664.84
2018-09-10T21:33:15.630Z,98672.80
2018-09-10T21:35:44.998Z,98672.75
2018-09-10T21:38:14.427Z,98680.34
2018-09-10T21:40:43.805Z,98683.53
2018-09-10T21:43:13.182Z,98690.92
2018-09-10T21:45:42.558Z,98684.16
2018-09-10T21:48:11.939Z,98678.30
2018-09-10T21:50:41.414Z,98669.86
2018-09-10T21:53:10.802Z,98667.77
2018-09-10T21:55:40.168Z,98672.14
2018-09-10T21:58:09.558Z,98657.96
2018-09-10T22:00:43.320Z,98660.21
2018-09-10T22:03:12.702Z,98656.62
2018-09-10T22:05:42.201Z,98664.09
2018-09-10T22:08:11.581Z,98678.45
2018-09-10T22:10:40.944Z,98674.74
2018-09-10T22:13:10.570Z,98667.44
2018-09-10T22:15:39.959Z,98666.32
2018-09-10T22:18:09.322Z,98668.89
2018-09-10T22:20:38.781Z,98666.33
2018-09-10T22:23:08.274Z,98653.83
2018-09-10T22:25:37.648Z,98651.17
2018-09-10T22:28:07.199Z,98650.41
2018-09-10T22:30:37.245Z,98634.64
2018-09-10T22:33:07.210Z,98655.27
2018-09-10T22:35:36.606Z,98652.80
2018-09-10T22:38:06.019Z,98651.83
2018-09-10T22:40:35.400Z,98653.48
2018-09-10T22:43:04.810Z,98648.60
2018-09-10T22:45:34.187Z,98644.25
2018-09-10T22:48:03.557Z,98642.55
2018-09-10T22:50:32.929Z,98654.58
2018-09-10T22:53:02.334Z,98650.30
2018-09-10T22:55:31.707Z,98651.71
2018-09-10T22:58:01.078Z,98657.39
2018-09-10T23:00:30.485Z,98661.38
2018-09-10T23:02:59.851Z,98658.39
2018-09-10T23:05:29.233Z,98646.77
2018-09-10T23:07:58.611Z,98643.71
2018-09-10T23:10:28.023Z,98648.88
2018-09-10T23:12:57.414Z,98648.11
2018-09-10T23:15:26.798Z,98647.70
2018-09-10T23:17:56.182Z,98633.17
2018-09-10T23:20:25.562Z,98631.10
2018-09-10T23:22:54.934Z,98641.98
2018-09-10T23:25:24.325Z,98639.50
2018-09-10T23:27:53.695Z,98640.86
2018-09-10T23:30:23.078Z,98640.95
2018-09-10T23:32:52.457Z,98649.55
2018-09-10T23:35:21.829Z,98649.82
2018-09-10T23:37:51.206Z,98658.85
2018-09-10T23:40:20.602Z,98659.32
2018-09-10T23:42:49.978Z,98663.59
2018-09-10T23:45:19.417Z,98659.76
2018-09-10T23:47:48.794Z,98665.70
2018-09-10T23:50:18.182Z,98674.33
2018-09-10T23:52:47.537Z,98674.33
2018-09-10T23:55:16.966Z,98669.61
2018-09-10T23:57:46.334Z,98676.46
